Time;durP1;ratioP1;P1;durP2;ratioP2;P2;SDS_P1;SDS_P2;PMS_P1;PMS_P2;Temp;Humidity;BMP_temperature;BMP_pressure;BME280_temperature;BME280_humidity;BME280_pressure;Samples;Min_cycle;Max_cycle;Signal;HPM_P1;HPM_P2
2021/12/11 00:00:31;;;;;;;23.38;11.88;;;;;7.40;100343.00;;;;5031509;28;20250;-81
2021/12/11 00:03:05;;;;;;;17.35;10.43;;;;;7.30;100335.00;;;;5031605;28;20196;-80
2021/12/11 00:05:34;;;;;;;21.00;11.75;;;;;7.40;100343.00;;;;5031517;28;20574;-80
2021/12/11 00:08:02;;;;;;;21.40;11.50;;;;;7.30;100347.00;;;;5032529;28;20192;-80
2021/12/11 00:10:35;;;;;;;17.55;11.07;;;;;7.30;100354.00;;;;5031702;28;20677;-81
2021/12/11 00:13:07;;;;;;;13.55;8.15;;;;;7.30;100364.00;;;;5030558;28;20204;-80
2021/12/11 00:15:37;;;;;;;11.20;6.85;;;;;7.30;100365.00;;;;5031996;28;20196;-80
2021/12/11 00:18:07;;;;;;;13.40;7.35;;;;;7.30;100371.00;;;;5030287;28;20565;-81
2021/12/11 00:20:38;;;;;;;10.45;6.07;;;;;7.30;100375.00;;;;5030929;28;20196;-81
2021/12/11 00:23:06;;;;;;;10.98;7.25;;;;;7.30;100372.00;;;;5031982;28;20204;-80
2021/12/11 00:25:42;;;;;;;13.35;7.72;;;;;7.30;100372.00;;;;5032558;28;20205;-81
2021/12/11 00:28:10;;;;;;;14.93;7.68;;;;;7.30;100378.00;;;;5033050;28;20203;-81
2021/12/11 00:30:41;;;;;;;10.02;6.43;;;;;7.30;100386.00;;;;5030532;28;20192;-81
2021/12/11 00:33:11;;;;;;;8.13;6.05;;;;;7.30;100391.00;;;;5032251;28;20204;-81
2021/12/11 00:35:40;;;;;;;12.85;6.78;;;;;7.30;100393.00;;;;5031163;28;20192;-81
2021/12/11 00:38:10;;;;;;;11.07;6.70;;;;;7.30;100390.00;;;;5032053;28;20200;-81
2021/12/11 00:40:39;;;;;;;11.82;6.78;;;;;7.30;100395.00;;;;5031605;28;21082;-80
2021/12/11 00:43:11;;;;;;;9.95;7.10;;;;;7.30;100395.00;;;;5030272;28;20220;-81
2021/12/11 00:45:41;;;;;;;14.48;7.95;;;;;7.30;100407.00;;;;5030729;28;20200;-80
2021/12/11 00:48:11;;;;;;;12.82;8.25;;;;;7.30;100408.00;;;;5031312;28;20710;-81
2021/12/11 00:50:42;;;;;;;13.02;8.65;;;;;7.30;100403.00;;;;5031121;28;20196;-80
2021/12/11 00:53:13;;;;;;;11.68;7.68;;;;;7.30;100429.00;;;;5031615;28;20207;-81
2021/12/11 00:55:45;;;;;;;9.38;6.20;;;;;7.30;100429.00;;;;5031254;28;20224;-81
2021/12/11 00:58:16;;;;;;;9.38;6.18;;;;;7.30;100435.00;;;;5032014;28;20206;-81
2021/12/11 01:00:48;;;;;;;9.75;5.82;;;;;7.30;100437.00;;;;5031289;28;20214;-81
2021/12/11 01:03:17;;;;;;;10.38;6.30;;;;;7.30;100449.00;;;;5026914;28;20208;-80
2021/12/11 01:05:49;;;;;;;9.40;5.97;;;;;7.30;100448.00;;;;5030501;28;20185;-81
2021/12/11 01:08:23;;;;;;;8.35;6.13;;;;;7.30;100457.00;;;;5030916;28;20195;-81
2021/12/11 01:10:58;;;;;;;7.15;5.50;;;;;7.30;100462.00;;;;5031053;28;20663;-81
2021/12/11 01:13:31;;;;;;;11.95;5.80;;;;;7.30;100466.00;;;;5029488;28;20199;-80
2021/12/11 01:16:05;;;;;;;10.43;6.25;;;;;7.30;100476.00;;;;5030724;28;20199;-81
2021/12/11 01:18:39;;;;;;;8.60;5.22;;;;;7.30;100478.00;;;;5028665;28;20228;-80
2021/12/11 01:21:29;;;;;;;12.55;6.60;;;;;7.30;100479.00;;;;5026480;28;20208;-80
2021/12/11 01:24:14;;;;;;;7.38;5.10;;;;;7.30;100484.00;;;;5029662;28;20287;-81
2021/12/11 01:26:47;;;;;;;8.75;4.90;;;;;7.30;100496.00;;;;5029533;28;20220;-80
2021/12/11 01:29:15;;;;;;;9.82;5.50;;;;;7.40;100504.00;;;;5029509;28;20196;-80
2021/12/11 01:31:43;;;;;;;8.60;5.60;;;;;7.40;100502.00;;;;5029110;28;20208;-80
2021/12/11 01:34:11;;;;;;;8.23;5.32;;;;;7.40;100510.00;;;;5029232;28;20203;-80
2021/12/11 01:36:39;;;;;;;9.02;5.88;;;;;7.40;100513.00;;;;5026611;28;20271;-80
2021/12/11 01:39:10;;;;;;;7.63;5.07;;;;;7.40;100507.00;;;;5024380;28;20212;-81
2021/12/11 01:41:37;;;;;;;8.85;5.45;;;;;7.40;100505.00;;;;5031665;28;21069;-81
2021/12/11 01:44:11;;;;;;;8.00;5.07;;;;;7.40;100511.00;;;;5030946;28;20224;-81
2021/12/11 01:46:42;;;;;;;7.93;5.35;;;;;7.40;100518.00;;;;5031885;28;20192;-81
2021/12/11 01:49:13;;;;;;;9.68;5.38;;;;;7.40;100525.00;;;;5033797;28;20200;-81
2021/12/11 01:51:44;;;;;;;7.28;5.43;;;;;7.40;100542.00;;;;5029363;28;20223;-81
2021/12/11 01:54:17;;;;;;;9.65;5.75;;;;;7.40;100541.00;;;;5018422;28;20211;-81
2021/12/11 01:56:48;;;;;;;7.30;4.68;;;;;7.40;100546.00;;;;5019680;28;20580;-81
2021/12/11 01:59:22;;;;;;;7.38;4.93;;;;;7.50;100554.00;;;;5028164;28;21000;-81
2021/12/11 02:01:57;;;;;;;6.93;4.68;;;;;7.50;100557.00;;;;5028332;28;20210;-81
2021/12/11 02:04:27;;;;;;;8.63;5.05;;;;;7.50;100567.00;;;;5030013;28;20695;-80
2021/12/11 02:07:00;;;;;;;6.40;4.78;;;;;7.50;100587.00;;;;5030472;28;20211;-81
2021/12/11 02:09:31;;;;;;;7.80;4.85;;;;;7.50;100577.00;;;;5031914;28;20246;-81
2021/12/11 02:12:06;;;;;;;6.35;4.38;;;;;7.60;100571.00;;;;5031516;28;20196;-82
2021/12/11 02:14:40;;;;;;;8.07;4.63;;;;;7.60;100588.00;;;;5030263;28;20206;-82
2021/12/11 02:17:13;;;;;;;7.82;4.68;;;;;7.60;100591.00;;;;5014814;28;20661;-81
2021/12/11 02:19:43;;;;;;;6.63;4.78;;;;;7.70;100594.00;;;;5030841;28;20200;-81
2021/12/11 02:22:16;;;;;;;7.65;4.57;;;;;7.70;100591.00;;;;5031641;28;20207;-81
2021/12/11 02:24:48;;;;;;;7.68;4.90;;;;;7.70;100595.00;;;;5033853;28;20211;-81
2021/12/11 02:27:21;;;;;;;7.32;5.15;;;;;7.70;100600.00;;;;5041392;28;20208;-81
2021/12/11 02:29:54;;;;;;;6.80;5.18;;;;;7.80;100602.00;;;;5039367;28;20200;-81
2021/12/11 02:32:29;;;;;;;7.65;4.82;;;;;7.70;100609.00;;;;5034424;28;20207;-81
2021/12/11 02:35:00;;;;;;;7.03;5.00;;;;;7.80;100611.00;;;;5032139;28;20219;-81
2021/12/11 02:37:37;;;;;;;9.25;5.50;;;;;7.80;100620.00;;;;5033422;28;20227;-81
2021/12/11 02:40:13;;;;;;;6.82;4.32;;;;;7.80;100622.00;;;;5035195;28;20192;-81
2021/12/11 02:42:45;;;;;;;8.23;4.90;;;;;7.80;100627.00;;;;5038797;28;20216;-81
2021/12/11 02:45:17;;;;;;;6.60;4.47;;;;;7.80;100631.00;;;;5034922;28;20192;-81
2021/12/11 02:47:48;;;;;;;6.80;4.70;;;;;7.80;100635.00;;;;5034762;28;20192;-81
2021/12/11 02:50:20;;;;;;;8.05;4.65;;;;;7.90;100637.00;;;;5035537;28;20251;-81
2021/12/11 02:52:54;;;;;;;6.68;4.25;;;;;7.90;100642.00;;;;5038002;28;20196;-81
2021/12/11 02:55:25;;;;;;;7.35;4.97;;;;;7.90;100650.00;;;;5014507;28;20691;-81
2021/12/11 02:57:55;;;;;;;6.82;4.80;;;;;7.90;100646.00;;;;5015455;28;20221;-81
2021/12/11 03:00:29;;;;;;;8.27;4.80;;;;;7.90;100647.00;;;;5029262;28;20216;-81
2021/12/11 03:03:03;;;;;;;8.10;5.20;;;;;8.00;100655.00;;;;5031221;28;20212;-81
2021/12/11 03:05:38;;;;;;;9.30;5.03;;;;;8.00;100661.00;;;;5031754;28;20303;-81
2021/12/11 03:08:09;;;;;;;7.15;5.03;;;;;8.00;100663.00;;;;5025148;28;20252;-81
2021/12/11 03:10:37;;;;;;;6.75;4.70;;;;;8.10;100671.00;;;;5034643;28;20196;-81
2021/12/11 03:13:05;;;;;;;8.60;4.85;;;;;8.10;100665.00;;;;5030105;28;20192;-81
2021/12/11 03:15:32;;;;;;;8.43;5.25;;;;;8.20;100664.00;;;;5029163;28;20199;-81
2021/12/11 03:18:00;;;;;;;7.30;5.13;;;;;8.20;100670.00;;;;5032667;28;20246;-81
2021/12/11 03:20:27;;;;;;;8.70;5.20;;;;;8.20;100672.00;;;;5032272;28;20211;-81
2021/12/11 03:22:55;;;;;;;6.13;4.68;;;;;8.20;100670.00;;;;5032586;28;20224;-81
2021/12/11 03:25:27;;;;;;;7.93;4.57;;;;;8.20;100675.00;;;;5032393;28;20250;-81
2021/12/11 03:27:55;;;;;;;7.22;5.03;;;;;8.30;100674.00;;;;5033492;28;20254;-81
2021/12/11 03:30:26;;;;;;;10.55;5.30;;;;;8.30;100673.00;;;;5032896;28;20208;-81
2021/12/11 03:32:57;;;;;;;7.32;5.15;;;;;8.30;100682.00;;;;5033115;28;20207;-81
2021/12/11 03:35:26;;;;;;;8.70;5.25;;;;;8.30;100680.00;;;;5030739;28;20200;-81
2021/12/11 03:37:53;;;;;;;6.63;4.85;;;;;8.30;100680.00;;;;5025286;28;20223;-81
2021/12/11 03:40:23;;;;;;;6.60;4.45;;;;;8.40;100680.00;;;;5032627;28;20681;-81
2021/12/11 03:42:52;;;;;;;7.10;4.55;;;;;8.40;100677.00;;;;5033467;28;20231;-82
2021/12/11 03:45:23;;;;;;;5.15;4.18;;;;;8.40;100679.00;;;;5032685;28;20200;-81
2021/12/11 03:47:53;;;;;;;6.88;4.82;;;;;8.40;100690.00;;;;5031637;28;20204;-81
2021/12/11 03:50:23;;;;;;;7.70;5.07;;;;;8.40;100690.00;;;;5031593;28;20188;-81
2021/12/11 03:52:53;;;;;;;7.38;4.40;;;;;8.50;100699.00;;;;5026105;28;21001;-81
2021/12/11 03:55:30;;;;;;;7.68;4.97;;;;;8.50;100700.00;;;;5020383;28;20266;-82
2021/12/11 03:58:00;;;;;;;7.25;4.38;;;;;8.50;100700.00;;;;5031946;28;20219;-81
2021/12/11 04:00:31;;;;;;;7.30;4.65;;;;;8.50;100702.00;;;;5031493;28;20224;-81
2021/12/11 04:03:03;;;;;;;6.57;4.93;;;;;8.60;100694.00;;;;5032003;28;20192;-81
2021/12/11 04:05:32;;;;;;;6.45;4.38;;;;;8.60;100702.00;;;;5031788;28;20192;-82
2021/12/11 04:08:00;;;;;;;7.47;5.15;;;;;8.60;100708.00;;;;5034857;28;20204;-82
2021/12/11 04:10:28;;;;;;;6.25;4.38;;;;;8.60;100715.00;;;;5024746;28;20205;-82
2021/12/11 04:12:58;;;;;;;8.98;4.90;;;;;8.60;100718.00;;;;5030364;28;20207;-82
2021/12/11 04:15:25;;;;;;;6.72;4.85;;;;;8.70;100723.00;;;;5038989;28;20211;-82
2021/12/11 04:17:54;;;;;;;6.40;4.55;;;;;8.70;100731.00;;;;5036451;28;20227;-82
2021/12/11 04:20:24;;;;;;;8.65;4.65;;;;;8.70;100733.00;;;;5037854;28;20201;-82
2021/12/11 04:22:51;;;;;;;7.03;4.95;;;;;8.70;100740.00;;;;5036760;28;20694;-82
2021/12/11 04:25:22;;;;;;;7.07;4.63;;;;;8.70;100748.00;;;;5035215;28;20203;-82
2021/12/11 04:27:51;;;;;;;5.75;4.53;;;;;8.80;100741.00;;;;5034784;28;20212;-82
2021/12/11 04:30:20;;;;;;;10.45;5.25;;;;;8.80;100750.00;;;;5034045;28;20582;-82
2021/12/11 04:32:50;;;;;;;7.72;4.78;;;;;8.80;100747.00;;;;5034766;28;20207;-82
2021/12/11 04:35:18;;;;;;;8.45;4.75;;;;;8.80;100743.00;;;;5035138;28;20197;-82
2021/12/11 04:37:46;;;;;;;10.30;6.00;;;;;8.80;100745.00;;;;5033755;28;20601;-82
2021/12/11 04:40:17;;;;;;;7.22;4.55;;;;;8.80;100750.00;;;;5031661;28;20662;-81
2021/12/11 04:42:53;;;;;;;7.07;4.88;;;;;8.90;100757.00;;;;5030381;28;20262;-82
2021/12/11 04:45:30;;;;;;;7.05;4.63;;;;;8.80;100759.00;;;;5030255;28;20204;-82
2021/12/11 04:48:03;;;;;;;9.90;4.80;;;;;8.90;100755.00;;;;5031092;28;20196;-82
2021/12/11 04:50:42;;;;;;;6.75;4.25;;;;;8.90;100764.00;;;;5031497;28;20685;-82
2021/12/11 04:53:24;;;;;;;6.13;4.32;;;;;8.90;100764.00;;;;5031675;28;20206;-83
2021/12/11 04:56:11;;;;;;;8.43;5.45;;;;;9.00;100754.00;;;;5031370;28;20251;-82
2021/12/11 04:58:51;;;;;;;7.18;4.65;;;;;9.00;100753.00;;;;5030700;28;20220;-82
2021/12/11 05:01:42;;;;;;;7.82;4.85;;;;;9.00;100753.00;;;;5030353;28;20574;-83
2021/12/11 05:04:36;;;;;;;9.93;5.80;;;;;9.00;100756.00;;;;5032270;28;20250;-83
2021/12/11 05:07:18;;;;;;;7.45;5.00;;;;;9.00;100753.00;;;;5030481;28;20196;-83
2021/12/11 05:09:54;;;;;;;6.90;4.60;;;;;9.00;100766.00;;;;5032896;28;20211;-83
2021/12/11 05:12:33;;;;;;;8.43;4.82;;;;;9.00;100775.00;;;;5033717;28;20206;-82
2021/12/11 05:15:01;;;;;;;7.55;4.93;;;;;9.10;100778.00;;;;5033242;28;20608;-83
2021/12/11 05:17:30;;;;;;;7.85;5.25;;;;;9.10;100773.00;;;;5029591;28;20227;-83
2021/12/11 05:19:57;;;;;;;9.73;5.22;;;;;9.10;100774.00;;;;5029601;28;20211;-82
2021/12/11 05:22:25;;;;;;;9.10;5.32;;;;;9.10;100778.00;;;;5032456;28;20627;-82
2021/12/11 05:24:55;;;;;;;9.18;5.20;;;;;9.10;100775.00;;;;5031571;28;20204;-82
2021/12/11 05:27:23;;;;;;;6.68;4.35;;;;;9.20;100776.00;;;;5031159;28;20638;-82
2021/12/11 05:29:51;;;;;;;8.00;4.97;;;;;9.20;100784.00;;;;5030554;28;20200;-82
2021/12/11 05:32:21;;;;;;;8.75;5.50;;;;;9.20;100778.00;;;;5030167;28;20207;-82
2021/12/11 05:34:50;;;;;;;8.15;5.28;;;;;9.30;100775.00;;;;5028683;28;20192;-82
2021/12/11 05:37:18;;;;;;;7.78;5.95;;;;;9.30;100784.00;;;;5029128;28;20204;-82
2021/12/11 05:39:46;;;;;;;7.80;5.60;;;;;9.30;100783.00;;;;5026621;28;20282;-82
2021/12/11 05:42:13;;;;;;;7.45;5.57;;;;;9.30;100775.00;;;;5030219;28;20203;-82
2021/12/11 05:44:41;;;;;;;9.80;6.10;;;;;9.40;100778.00;;;;5028906;28;20193;-82
2021/12/11 05:47:09;;;;;;;10.32;6.47;;;;;9.40;100787.00;;;;5030123;28;20204;-83
2021/12/11 05:49:37;;;;;;;9.65;6.07;;;;;9.40;100790.00;;;;5030984;28;20196;-83
2021/12/11 05:52:09;;;;;;;7.72;5.18;;;;;9.40;100797.00;;;;5026349;28;20228;-83
2021/12/11 05:54:39;;;;;;;9.70;5.93;;;;;9.50;100797.00;;;;5030105;28;20196;-83
2021/12/11 05:57:13;;;;;;;8.63;5.72;;;;;9.50;100794.00;;;;5030400;28;20760;-83
2021/12/11 05:59:44;;;;;;;10.98;5.82;;;;;9.50;100800.00;;;;5029318;28;20196;-83
2021/12/11 06:02:15;;;;;;;10.70;6.13;;;;;9.50;100802.00;;;;5029700;28;20188;-83
2021/12/11 06:04:45;;;;;;;9.02;5.95;;;;;9.60;100800.00;;;;5029320;28;20195;-83
2021/12/11 06:07:15;;;;;;;11.10;6.90;;;;;9.60;100797.00;;;;5031720;28;20207;-83
2021/12/11 06:09:46;;;;;;;8.93;5.97;;;;;9.60;100797.00;;;;5030688;28;20204;-82
2021/12/11 06:12:16;;;;;;;8.02;5.40;;;;;9.60;100802.00;;;;5031970;28;20200;-83
2021/12/11 06:14:45;;;;;;;9.02;5.85;;;;;9.70;100800.00;;;;5031107;28;20196;-83
2021/12/11 06:17:17;;;;;;;10.25;6.18;;;;;9.70;100806.00;;;;5029731;28;20196;-83
2021/12/11 06:19:50;;;;;;;10.30;6.20;;;;;9.70;100801.00;;;;5024347;28;20678;-83
2021/12/11 06:22:20;;;;;;;10.77;6.57;;;;;9.80;100806.00;;;;5027750;28;20207;-84
2021/12/11 06:24:48;;;;;;;11.13;6.78;;;;;9.80;100813.00;;;;5026326;28;20204;-84
2021/12/11 06:27:16;;;;;;;11.27;6.57;;;;;9.80;100811.00;;;;5023980;28;20597;-84
2021/12/11 06:29:44;;;;;;;9.57;6.25;;;;;9.80;100823.00;;;;5027063;28;20196;-83
2021/12/11 06:32:11;;;;;;;11.18;6.68;;;;;9.80;100824.00;;;;5029919;28;20689;-84
2021/12/11 06:34:38;;;;;;;11.27;6.50;;;;;9.90;100827.00;;;;5028166;28;20658;-84
2021/12/11 06:37:08;;;;;;;10.07;6.32;;;;;9.90;100825.00;;;;5028549;28;20693;-84
2021/12/11 06:39:38;;;;;;;9.25;6.40;;;;;9.90;100845.00;;;;5027925;28;20227;-84
2021/12/11 06:42:09;;;;;;;12.15;7.18;;;;;9.90;100832.00;;;;5025887;28;20207;-84
2021/12/11 06:44:37;;;;;;;10.93;7.07;;;;;9.90;100851.00;;;;5025139;28;20208;-84
2021/12/11 06:47:09;;;;;;;8.82;6.20;;;;;9.90;100854.00;;;;5028489;28;20219;-83
2021/12/11 06:49:38;;;;;;;9.95;6.57;;;;;10.00;100865.00;;;;5027586;28;20200;-84
2021/12/11 06:52:09;;;;;;;9.02;6.47;;;;;10.00;100862.00;;;;5027989;28;20559;-84
2021/12/11 06:54:38;;;;;;;10.68;6.70;;;;;10.10;100876.00;;;;5027141;28;20250;-84
2021/12/11 06:57:06;;;;;;;10.35;6.82;;;;;10.10;100885.00;;;;5028064;28;20228;-84
2021/12/11 06:59:34;;;;;;;10.70;7.18;;;;;10.10;100887.00;;;;5024492;28;20228;-84
2021/12/11 07:02:01;;;;;;;11.85;7.05;;;;;10.20;100894.00;;;;5027320;28;20208;-83
2021/12/11 07:04:28;;;;;;;9.32;6.05;;;;;10.20;100888.00;;;;5027574;28;20202;-84
2021/12/11 07:06:56;;;;;;;10.85;6.43;;;;;10.20;100905.00;;;;5027611;28;20211;-84
2021/12/11 07:09:26;;;;;;;10.55;6.68;;;;;10.20;100901.00;;;;5027172;28;20943;-84
2021/12/11 07:11:57;;;;;;;11.85;7.25;;;;;10.20;100906.00;;;;5027728;28;20193;-84
2021/12/11 07:14:27;;;;;;;11.38;6.85;;;;;10.30;100908.00;;;;5026327;28;20200;-83
2021/12/11 07:16:54;;;;;;;12.00;6.50;;;;;10.30;100914.00;;;;5024947;28;20223;-84
2021/12/11 07:19:24;;;;;;;9.95;6.78;;;;;10.30;100916.00;;;;5026336;28;20228;-83
2021/12/11 07:21:54;;;;;;;9.90;6.25;;;;;10.40;100921.00;;;;5027835;28;20196;-83
2021/12/11 07:24:27;;;;;;;9.90;6.78;;;;;10.40;100933.00;;;;5022572;28;20205;-83
2021/12/11 07:26:56;;;;;;;11.18;6.47;;;;;10.40;100937.00;;;;5022974;28;20203;-83
2021/12/11 07:29:23;;;;;;;10.13;6.97;;;;;10.50;100943.00;;;;5029165;28;20197;-84
2021/12/11 07:31:53;;;;;;;9.63;6.00;;;;;10.50;100945.00;;;;5028077;28;20208;-83
2021/12/11 07:34:21;;;;;;;11.18;7.25;;;;;10.50;100949.00;;;;5027013;28;20284;-83
2021/12/11 07:36:50;;;;;;;10.73;6.97;;;;;10.60;100961.00;;;;5026863;28;20200;-83
2021/12/11 07:39:20;;;;;;;10.73;6.45;;;;;10.60;100966.00;;;;5014379;28;20237;-84
2021/12/11 07:41:48;;;;;;;9.90;5.97;;;;;10.60;100974.00;;;;5019499;28;20600;-83
2021/12/11 07:44:17;;;;;;;8.88;6.13;;;;;10.70;100977.00;;;;5025600;28;20229;-84
2021/12/11 07:46:46;;;;;;;8.40;6.03;;;;;10.70;100979.00;;;;5033295;28;20188;-84
2021/12/11 07:49:13;;;;;;;8.63;5.90;;;;;10.70;101002.00;;;;5025986;28;20271;-84
2021/12/11 07:51:41;;;;;;;11.02;6.55;;;;;10.70;101007.00;;;;5021511;28;20200;-84
2021/12/11 07:54:10;;;;;;;10.88;6.63;;;;;10.70;101004.00;;;;5027186;28;20211;-82
2021/12/11 07:56:40;;;;;;;11.02;7.03;;;;;10.80;101023.00;;;;5030648;28;20232;-83
2021/12/11 07:59:09;;;;;;;11.23;6.93;;;;;10.80;101017.00;;;;5031159;28;20224;-83
2021/12/11 08:01:41;;;;;;;10.05;6.78;;;;;10.80;101033.00;;;;5030068;28;20200;-83
2021/12/11 08:04:09;;;;;;;10.18;6.75;;;;;10.80;101038.00;;;;5029911;28;20192;-83
2021/12/11 08:06:37;;;;;;;12.80;7.32;;;;;10.80;101045.00;;;;5029635;28;20674;-83
2021/12/11 08:09:06;;;;;;;10.55;6.45;;;;;10.80;101058.00;;;;5025958;28;20227;-83
2021/12/11 08:11:34;;;;;;;9.98;6.88;;;;;10.80;101059.00;;;;5021188;28;20219;-84
2021/12/11 08:14:03;;;;;;;10.93;7.15;;;;;10.80;101061.00;;;;5031367;28;20211;-86
2021/12/11 08:16:43;;;;;;;9.95;6.47;;;;;10.80;101066.00;;;;5030423;28;20192;-85
2021/12/11 08:19:13;;;;;;;9.52;6.60;;;;;10.80;101081.00;;;;5029947;28;20270;-85
2021/12/11 08:21:40;;;;;;;8.50;6.03;;;;;10.80;101090.00;;;;5026824;28;20197;-86
2021/12/11 08:24:08;;;;;;;9.68;5.95;;;;;10.90;101094.00;;;;5029867;28;20200;-85
2021/12/11 08:26:37;;;;;;;9.48;6.47;;;;;10.90;101104.00;;;;5014314;28;20215;-83
2021/12/11 08:29:06;;;;;;;10.65;6.70;;;;;10.90;101110.00;;;;5027243;28;20199;-83
2021/12/11 08:31:34;;;;;;;9.50;6.82;;;;;10.90;101114.00;;;;5033687;28;20254;-83
2021/12/11 08:34:01;;;;;;;9.50;5.82;;;;;10.80;101115.00;;;;5030677;28;20196;-83
2021/12/11 08:36:30;;;;;;;8.60;6.18;;;;;10.80;101123.00;;;;5028640;28;20703;-83
2021/12/11 08:38:59;;;;;;;8.90;6.25;;;;;10.90;101126.00;;;;5029795;28;20779;-85
2021/12/11 08:41:29;;;;;;;10.68;6.90;;;;;10.90;101124.00;;;;5026125;28;20196;-84
2021/12/11 08:44:03;;;;;;;9.48;6.00;;;;;10.90;101130.00;;;;5019604;28;20786;-86
2021/12/11 08:46:33;;;;;;;8.75;5.88;;;;;10.90;101138.00;;;;5027835;28;20191;-86
2021/12/11 08:49:08;;;;;;;8.40;6.07;;;;;10.90;101150.00;;;;5029091;28;20238;-85
2021/12/11 08:51:43;;;;;;;9.40;6.35;;;;;10.90;101155.00;;;;5029974;28;20203;-85
2021/12/11 08:54:12;;;;;;;8.63;5.97;;;;;11.00;101169.00;;;;5030739;28;20211;-86
2021/12/11 08:56:40;;;;;;;10.88;6.80;;;;;11.00;101168.00;;;;5029923;28;20235;-86
2021/12/11 08:59:10;;;;;;;10.43;6.35;;;;;11.00;101171.00;;;;5028826;28;20230;-86
2021/12/11 09:01:41;;;;;;;9.35;6.22;;;;;11.00;101183.00;;;;5030002;28;20522;-86
2021/12/11 09:04:12;;;;;;;9.57;6.75;;;;;11.00;101186.00;;;;5023981;28;20217;-83
2021/12/11 09:06:44;;;;;;;9.60;6.32;;;;;10.90;101200.00;;;;5028247;28;20192;-84
2021/12/11 09:09:19;;;;;;;9.82;6.55;;;;;11.00;101206.00;;;;5030118;28;20192;-84
2021/12/11 09:11:52;;;;;;;9.13;6.10;;;;;11.00;101202.00;;;;5028309;28;20200;-84
2021/12/11 09:14:23;;;;;;;9.80;6.15;;;;;11.00;101219.00;;;;5030185;28;20667;-85
2021/12/11 09:16:54;;;;;;;10.27;6.97;;;;;11.10;101219.00;;;;5030547;28;20670;-87
2021/12/11 09:19:28;;;;;;;12.30;7.97;;;;;11.10;101226.00;;;;5032710;28;20665;-86
2021/12/11 09:22:03;;;;;;;10.35;6.28;;;;;11.10;101222.00;;;;5029569;28;20292;-87
2021/12/11 09:24:35;;;;;;;9.85;7.07;;;;;11.10;101229.00;;;;5030928;28;20200;-84
2021/12/11 09:27:07;;;;;;;10.30;7.03;;;;;11.10;101236.00;;;;5030010;28;20200;-84
2021/12/11 09:29:39;;;;;;;11.07;6.70;;;;;11.10;101240.00;;;;5028785;28;20200;-88
2021/12/11 09:32:16;;;;;;;10.35;6.53;;;;;11.10;101248.00;;;;5011364;28;20204;-88
2021/12/11 09:34:48;;;;;;;9.27;6.03;;;;;11.20;101248.00;;;;5015150;28;20196;-85
2021/12/11 09:37:18;;;;;;;9.52;6.00;;;;;11.20;101254.00;;;;5028818;28;20207;-86
2021/12/11 09:39:48;;;;;;;9.02;6.45;;;;;11.30;101260.00;;;;5026934;28;20240;-86
2021/12/11 09:42:15;;;;;;;11.40;7.15;;;;;11.30;101265.00;;;;5029160;28;20196;-86
2021/12/11 09:44:50;;;;;;;14.57;6.88;;;;;11.30;101267.00;;;;5028965;28;20204;-85
2021/12/11 09:47:20;;;;;;;12.80;6.65;;;;;11.30;101268.00;;;;5029031;28;20211;-85
2021/12/11 09:49:53;;;;;;;9.32;6.43;;;;;11.30;101273.00;;;;5023518;28;20255;-85
2021/12/11 09:52:24;;;;;;;11.43;6.43;;;;;11.40;101276.00;;;;5020680;28;20556;-85
2021/12/11 09:54:55;;;;;;;8.00;5.78;;;;;11.40;101274.00;;;;5028979;28;20799;-85
2021/12/11 09:57:24;;;;;;;10.07;6.32;;;;;11.40;101284.00;;;;5028691;28;20231;-84
2021/12/11 09:59:55;;;;;;;9.65;6.25;;;;;11.50;101285.00;;;;5026976;28;20220;-87
2021/12/11 10:02:28;;;;;;;10.07;5.90;;;;;11.50;101283.00;;;;5024643;28;20197;-86
2021/12/11 10:05:00;;;;;;;12.27;6.22;;;;;11.50;101289.00;;;;5028804;28;20577;-87
2021/12/11 10:07:35;;;;;;;11.23;6.50;;;;;11.60;101289.00;;;;5027572;28;20201;-84
2021/12/11 10:10:17;;;;;;;14.02;6.68;;;;;11.50;101286.00;;;;5027846;28;20200;-85
2021/12/11 10:12:49;;;;;;;10.27;6.30;;;;;11.60;101289.00;;;;5019453;28;20199;-86
2021/12/11 10:15:21;;;;;;;8.55;5.72;;;;;11.60;101306.00;;;;5029287;28;20227;-85
2021/12/11 10:17:52;;;;;;;11.75;5.95;;;;;11.70;101293.00;;;;5028639;28;20204;-85
2021/12/11 10:20:25;;;;;;;10.40;6.50;;;;;11.70;101303.00;;;;5027870;28;20224;-85
2021/12/11 10:22:54;;;;;;;9.63;6.70;;;;;11.80;101306.00;;;;5028977;28;20250;-86
2021/12/11 10:25:30;;;;;;;9.75;6.43;;;;;11.80;101306.00;;;;5010482;28;20212;-85
2021/12/11 10:27:58;;;;;;;19.33;6.95;;;;;11.80;101316.00;;;;5009436;28;20227;-85
2021/12/11 10:30:28;;;;;;;13.10;6.15;;;;;11.80;101316.00;;;;5008691;28;20213;-85
2021/12/11 10:32:56;;;;;;;10.13;6.35;;;;;11.90;101314.00;;;;5025529;28;20204;-84
2021/12/11 10:35:26;;;;;;;12.77;6.32;;;;;11.90;101312.00;;;;5028013;28;20262;-85
2021/12/11 10:37:53;;;;;;;11.25;6.53;;;;;11.90;101319.00;;;;5028648;28;20192;-84
2021/12/11 10:40:27;;;;;;;9.35;6.22;;;;;11.90;101322.00;;;;5025792;28;20231;-84
2021/12/11 10:42:57;;;;;;;8.20;5.60;;;;;12.00;101321.00;;;;5024234;28;20204;-83
2021/12/11 10:45:29;;;;;;;8.43;6.15;;;;;12.00;101331.00;;;;5028199;28;20192;-84
2021/12/11 10:48:00;;;;;;;10.65;5.90;;;;;12.00;101327.00;;;;5027241;28;20208;-83
2021/12/11 10:50:33;;;;;;;11.65;5.75;;;;;12.00;101332.00;;;;5028567;28;20193;-82
2021/12/11 10:53:00;;;;;;;7.30;5.90;;;;;12.10;101341.00;;;;5028583;28;20255;-82
2021/12/11 10:55:31;;;;;;;7.93;5.95;;;;;12.10;101340.00;;;;5028017;28;20224;-84
2021/12/11 10:58:01;;;;;;;15.40;6.43;;;;;12.10;101348.00;;;;5025301;28;20212;-83
2021/12/11 11:00:35;;;;;;;10.40;6.05;;;;;12.10;101357.00;;;;5024670;28;20220;-84
2021/12/11 11:03:06;;;;;;;13.43;6.05;;;;;12.10;101369.00;;;;5020666;28;20192;-84
2021/12/11 11:05:35;;;;;;;13.07;5.60;;;;;12.10;101377.00;;;;5020822;28;20192;-84
2021/12/11 11:08:04;;;;;;;14.75;5.82;;;;;12.20;101375.00;;;;5022279;28;20203;-85
2021/12/11 11:10:35;;;;;;;8.40;5.60;;;;;12.10;101386.00;;;;5026984;28;20488;-83
2021/12/11 11:13:05;;;;;;;7.85;5.63;;;;;12.20;101382.00;;;;5027100;28;20200;-84
2021/12/11 11:15:37;;;;;;;12.88;7.38;;;;;12.20;101381.00;;;;5016022;28;20211;-85
2021/12/11 11:18:06;;;;;;;11.27;6.75;;;;;12.20;101375.00;;;;5017455;28;20658;-83
2021/12/11 11:20:36;;;;;;;8.90;6.20;;;;;12.30;101376.00;;;;5027151;28;20231;-83
2021/12/11 11:23:05;;;;;;;9.95;6.70;;;;;12.30;101376.00;;;;5028462;28;20689;-82
2021/12/11 11:25:35;;;;;;;10.77;6.93;;;;;12.30;101380.00;;;;5028185;28;20199;-83
2021/12/11 11:28:08;;;;;;;10.57;6.53;;;;;12.30;101385.00;;;;5025796;28;20201;-83
2021/12/11 11:30:40;;;;;;;8.20;6.07;;;;;12.20;101385.00;;;;5029725;28;20200;-83
2021/12/11 11:33:09;;;;;;;9.93;6.82;;;;;12.20;101398.00;;;;5026810;28;20207;-83
2021/12/11 11:35:42;;;;;;;10.57;6.30;;;;;12.20;101401.00;;;;5030138;28;20482;-83
2021/12/11 11:38:14;;;;;;;8.65;5.93;;;;;12.20;101399.00;;;;5031045;28;20196;-82
2021/12/11 11:40:45;;;;;;;9.27;6.40;;;;;12.20;101407.00;;;;5026019;28;20342;-83
2021/12/11 11:43:13;;;;;;;9.75;6.38;;;;;12.20;101411.00;;;;5031338;28;20212;-84
2021/12/11 11:45:42;;;;;;;9.75;6.60;;;;;12.20;101400.00;;;;5025687;28;20535;-84
2021/12/11 11:48:11;;;;;;;8.98;6.47;;;;;12.20;101416.00;;;;5029586;28;20196;-83
2021/12/11 11:50:42;;;;;;;10.73;6.65;;;;;12.20;101414.00;;;;5026979;28;20758;-82
2021/12/11 11:53:11;;;;;;;10.20;6.55;;;;;12.30;101411.00;;;;5030059;28;20212;-83
2021/12/11 11:55:45;;;;;;;8.82;6.35;;;;;12.30;101420.00;;;;5030936;28;20235;-82
2021/12/11 11:58:12;;;;;;;10.45;7.10;;;;;12.40;101429.00;;;;5025143;28;20204;-82
2021/12/11 12:00:47;;;;;;;10.13;6.43;;;;;12.40;101432.00;;;;5029959;28;20727;-82
2021/12/11 12:03:18;;;;;;;8.10;6.18;;;;;12.50;101435.00;;;;5029603;28;20233;-83
2021/12/11 12:05:49;;;;;;;9.65;6.90;;;;;12.50;101441.00;;;;5022257;28;20698;-83
2021/12/11 12:08:17;;;;;;;8.55;6.45;;;;;12.60;101439.00;;;;5029716;28;20195;-84
2021/12/11 12:10:47;;;;;;;9.25;6.78;;;;;12.70;101438.00;;;;5025410;28;20192;-83
2021/12/11 12:13:18;;;;;;;10.38;6.63;;;;;12.70;101430.00;;;;5023794;28;20211;-82
2021/12/11 12:15:50;;;;;;;11.02;7.07;;;;;12.80;101439.00;;;;5030995;28;20204;-82
2021/12/11 12:18:20;;;;;;;8.82;6.72;;;;;12.90;101444.00;;;;5029988;28;20197;-84
2021/12/11 12:20:50;;;;;;;10.27;7.35;;;;;12.90;101443.00;;;;5028963;28;20612;-82
2021/12/11 12:23:20;;;;;;;11.65;7.18;;;;;13.00;101442.00;;;;5028077;28;20204;-81
2021/12/11 12:25:49;;;;;;;11.38;7.70;;;;;13.00;101445.00;;;;5025762;28;20211;-82